sensor_id;sensor_type;location;lat;lon;timestamp;pressure;altitude;pressure_sealevel;temperature;humidity
63115;BME280;49208;50.874;6.466;2022-12-16T07:03:51;100139.06;;;-10.28;100.00
63115;BME280;49208;50.874;6.466;2022-12-16T07:06:35;100138.19;;;-10.28;100.00
63115;BME280;49208;50.874;6.466;2022-12-16T07:09:19;100145.88;;;-10.30;100.00
63115;BME280;49208;50.874;6.466;2022-12-16T07:12:04;100158.72;;;-10.30;100.00
63115;BME280;49208;50.874;6.466;2022-12-16T07:14:47;100154.47;;;-10.29;100.00
63115;BME280;49208;50.874;6.466;2022-12-16T07:17:31;100162.19;;;-10.29;100.00
63115;BME280;49208;50.874;6.466;2022-12-16T07:20:15;100166.44;;;-10.30;100.00
63115;BME280;49208;50.874;6.466;2022-12-16T07:22:59;100175.88;;;-10.30;100.00
63115;BME280;49208;50.874;6.466;2022-12-16T07:25:43;100179.34;;;-10.28;100.00
63115;BME280;49208;50.874;6.466;2022-12-16T07:28:27;100187.94;;;-10.28;100.00
63115;BME280;49208;50.874;6.466;2022-12-16T07:31:11;100192.34;;;-10.25;100.00
63115;BME280;49208;50.874;6.466;2022-12-16T07:34:05;100191.63;;;-10.23;100.00
63115;BME280;49208;50.874;6.466;2022-12-16T07:36:49;100194.22;;;-10.21;100.00
63115;BME280;49208;50.874;6.466;2022-12-16T07:39:33;100201.28;;;-10.17;100.00
63115;BME280;49208;50.874;6.466;2022-12-16T07:42:17;100208.38;;;-10.11;100.00
63115;BME280;49208;50.874;6.466;2022-12-16T07:45:00;100213.81;;;-10.05;100.00
63115;BME280;49208;50.874;6.466;2022-12-16T07:47:46;100214.00;;;-10.01;100.00
63115;BME280;49208;50.874;6.466;2022-12-16T07:50:41;100216.22;;;-9.89;100.00
63115;BME280;49208;50.874;6.466;2022-12-16T07:53:25;100221.88;;;-9.77;100.00
63115;BME280;49208;50.874;6.466;2022-12-16T07:56:10;100224.13;;;-9.65;100.00
63115;BME280;49208;50.874;6.466;2022-12-16T07:58:54;100241.00;;;-9.50;100.00
63115;BME280;49208;50.874;6.466;2022-12-16T08:01:38;100233.84;;;-9.37;100.00
63115;BME280;49208;50.874;6.466;2022-12-16T08:04:36;100240.56;;;-9.19;100.00
63115;BME280;49208;50.874;6.466;2022-12-16T08:07:20;100244.63;;;-9.03;100.00
63115;BME280;49208;50.874;6.466;2022-12-16T08:10:04;100246.88;;;-8.90;100.00
63115;BME280;49208;50.874;6.466;2022-12-16T08:12:48;100244.81;;;-8.76;100.00
63115;BME280;49208;50.874;6.466;2022-12-16T08:15:32;100243.59;;;-8.63;100.00
63115;BME280;49208;50.874;6.466;2022-12-16T08:18:16;100247.56;;;-8.49;100.00
63115;BME280;49208;50.874;6.466;2022-12-16T08:21:00;100249.78;;;-8.36;100.00
63115;BME280;49208;50.874;6.466;2022-12-16T08:23:44;100243.28;;;-8.24;100.00
63115;BME280;49208;50.874;6.466;2022-12-16T08:26:28;100242.03;;;-8.12;100.00
63115;BME280;49208;50.874;6.466;2022-12-16T08:29:12;100247.63;;;-7.99;100.00
63115;BME280;49208;50.874;6.466;2022-12-16T08:31:56;100245.47;;;-7.87;100.00
63115;BME280;49208;50.874;6.466;2022-12-16T08:34:40;100251.94;;;-7.74;100.00
63115;BME280;49208;50.874;6.466;2022-12-16T08:37:24;100260.13;;;-7.62;100.00
63115;BME280;49208;50.874;6.466;2022-12-16T08:40:08;100259.69;;;-7.50;100.00
63115;BME280;49208;50.874;6.466;2022-12-16T08:42:55;100267.84;;;-7.38;100.00
63115;BME280;49208;50.874;6.466;2022-12-16T08:45:40;100273.44;;;-7.25;100.00
63115;BME280;49208;50.874;6.466;2022-12-16T08:48:24;100280.72;;;-7.14;100.00
63115;BME280;49208;50.874;6.466;2022-12-16T08:51:09;100283.72;;;-7.01;100.00
63115;BME280;49208;50.874;6.466;2022-12-16T08:53:53;100288.44;;;-6.88;100.00
63115;BME280;49208;50.874;6.466;2022-12-16T08:56:37;100293.13;;;-6.76;100.00
63115;BME280;49208;50.874;6.466;2022-12-16T08:59:21;100282.31;;;-6.63;100.00
63115;BME280;49208;50.874;6.466;2022-12-16T09:02:05;100289.72;;;-6.46;100.00
63115;BME280;49208;50.874;6.466;2022-12-16T09:04:49;100293.63;;;-6.32;100.00
63115;BME280;49208;50.874;6.466;2022-12-16T09:07:33;100300.03;;;-6.19;100.00
63115;BME280;49208;50.874;6.466;2022-12-16T09:10:17;100299.59;;;-6.04;100.00
63115;BME280;49208;50.874;6.466;2022-12-16T09:13:08;100300.84;;;-5.90;100.00
63115;BME280;49208;50.874;6.466;2022-12-16T09:15:52;100308.97;;;-5.78;100.00
63115;BME280;49208;50.874;6.466;2022-12-16T09:18:36;100303.25;;;-5.66;100.00
63115;BME280;49208;50.874;6.466;2022-12-16T09:21:20;100307.00;;;-5.55;100.00
63115;BME280;49208;50.874;6.466;2022-12-16T09:24:04;100305.59;;;-5.43;100.00
63115;BME280;49208;50.874;6.466;2022-12-16T09:26:48;100307.59;;;-5.33;100.00
63115;BME280;49208;50.874;6.466;2022-12-16T09:29:32;100311.31;;;-5.22;100.00
63115;BME280;49208;50.874;6.466;2022-12-16T09:32:16;100311.66;;;-5.10;100.00
63115;BME280;49208;50.874;6.466;2022-12-16T09:35:00;100309.41;;;-4.96;100.00
63115;BME280;49208;50.874;6.466;2022-12-16T09:37:46;100308.91;;;-4.81;100.00
63115;BME280;49208;50.874;6.466;2022-12-16T09:40:30;100316.13;;;-4.68;100.00
63115;BME280;49208;50.874;6.466;2022-12-16T09:43:39;100313.00;;;-4.54;100.00
63115;BME280;49208;50.874;6.466;2022-12-16T09:46:51;100319.41;;;-4.38;100.00
63115;BME280;49208;50.874;6.466;2022-12-16T09:49:50;100322.22;;;-4.28;100.00
63115;BME280;49208;50.874;6.466;2022-12-16T09:52:43;100321.63;;;-4.16;100.00
63115;BME280;49208;50.874;6.466;2022-12-16T09:55:31;100330.63;;;-4.01;100.00
63115;BME280;49208;50.874;6.466;2022-12-16T09:58:17;100327.44;;;-3.87;100.00
63115;BME280;49208;50.874;6.466;2022-12-16T10:01:03;100329.47;;;-3.73;100.00
63115;BME280;49208;50.874;6.466;2022-12-16T10:03:47;100344.56;;;-3.57;100.00
63115;BME280;49208;50.874;6.466;2022-12-16T10:06:44;100336.09;;;-3.45;100.00
63115;BME280;49208;50.874;6.466;2022-12-16T10:12:33;100333.78;;;-3.28;100.00
63115;BME280;49208;50.874;6.466;2022-12-16T10:21:09;100341.97;;;-3.08;100.00
63115;BME280;49208;50.874;6.466;2022-12-16T10:24:08;100347.34;;;-2.99;100.00
63115;BME280;49208;50.874;6.466;2022-12-16T10:27:07;100348.34;;;-2.91;100.00
63115;BME280;49208;50.874;6.466;2022-12-16T10:29:55;100352.78;;;-2.85;100.00
63115;BME280;49208;50.874;6.466;2022-12-16T10:35:29;100348.59;;;-2.77;100.00
63115;BME280;49208;50.874;6.466;2022-12-16T10:38:47;100349.50;;;-2.75;100.00
63115;BME280;49208;50.874;6.466;2022-12-16T10:41:39;100350.38;;;-2.74;100.00
63115;BME280;49208;50.874;6.466;2022-12-16T10:44:35;100351.28;;;-2.74;100.00
63115;BME280;49208;50.874;6.466;2022-12-16T10:47:20;100350.41;;;-2.73;100.00
63115;BME280;49208;50.874;6.466;2022-12-16T10:50:04;100360.84;;;-2.71;100.00
63115;BME280;49208;50.874;6.466;2022-12-16T10:58:53;100366.28;;;-2.57;100.00
63115;BME280;49208;50.874;6.466;2022-12-16T11:01:38;100365.47;;;-2.53;100.00
63115;BME280;49208;50.874;6.466;2022-12-16T11:04:37;100365.53;;;-2.50;100.00
63115;BME280;49208;50.874;6.466;2022-12-16T11:13:23;100366.59;;;-2.37;100.00
63115;BME280;49208;50.874;6.466;2022-12-16T11:18:55;100362.34;;;-2.32;100.00
63115;BME280;49208;50.874;6.466;2022-12-16T11:21:39;100363.25;;;-2.29;100.00
63115;BME280;49208;50.874;6.466;2022-12-16T11:24:23;100364.16;;;-2.27;100.00
63115;BME280;49208;50.874;6.466;2022-12-16T11:33:03;100369.47;;;-2.22;100.00
63115;BME280;49208;50.874;6.466;2022-12-16T11:35:53;100374.69;;;-2.22;100.00
63115;BME280;49208;50.874;6.466;2022-12-16T11:38:47;100371.19;;;-2.21;100.00
63115;BME280;49208;50.874;6.466;2022-12-16T11:41:41;100369.47;;;-2.20;100.00
63115;BME280;49208;50.874;6.466;2022-12-16T11:44:31;100373.81;;;-2.21;100.00
63115;BME280;49208;50.874;6.466;2022-12-16T11:50:12;100379.03;;;-2.21;100.00
63115;BME280;49208;50.874;6.466;2022-12-16T11:52:58;100381.59;;;-2.22;100.00
63115;BME280;49208;50.874;6.466;2022-12-16T11:55:46;100389.38;;;-2.26;100.00
63115;BME280;49208;50.874;6.466;2022-12-16T11:58:49;100391.97;;;-2.27;100.00
63115;BME280;49208;50.874;6.466;2022-12-16T12:01:40;100392.84;;;-2.28;100.00
63115;BME280;49208;50.874;6.466;2022-12-16T12:04:27;100389.31;;;-2.30;100.00
63115;BME280;49208;50.874;6.466;2022-12-16T12:07:40;100385.81;;;-2.32;100.00
63115;BME280;49208;50.874;6.466;2022-12-16T12:10:33;100389.28;;;-2.32;100.00
63115;BME280;49208;50.874;6.466;2022-12-16T12:14:25;100392.75;;;-2.34;100.00
63115;BME280;49208;50.874;6.466;2022-12-16T12:17:56;100397.03;;;-2.35;100.00
63115;BME280;49208;50.874;6.466;2022-12-16T12:20:24;100400.50;;;-2.37;100.00
63115;BME280;49208;50.874;6.466;2022-12-16T12:23:10;100406.56;;;-2.37;100.00
63115;BME280;49208;50.874;6.466;2022-12-16T12:26:12;100400.50;;;-2.37;100.00
63115;BME280;49208;50.874;6.466;2022-12-16T12:41:26;100399.81;;;-2.26;100.00
63115;BME280;49208;50.874;6.466;2022-12-16T12:44:20;100403.31;;;-2.24;100.00
63115;BME280;49208;50.874;6.466;2022-12-16T12:47:07;100400.75;;;-2.20;100.00
63115;BME280;49208;50.874;6.466;2022-12-16T12:50:08;100403.38;;;-2.19;100.00
63115;BME280;49208;50.874;6.466;2022-12-16T12:56:29;100408.63;;;-2.16;100.00
63115;BME280;49208;50.874;6.466;2022-12-16T12:59:44;100409.53;;;-2.14;100.00
63115;BME280;49208;50.874;6.466;2022-12-16T13:02:49;100409.53;;;-2.14;100.00
63115;BME280;49208;50.874;6.466;2022-12-16T13:05:37;100413.94;;;-2.11;100.00
63115;BME280;49208;50.874;6.466;2022-12-16T13:08:53;100418.25;;;-2.13;100.00
63115;BME280;49208;50.874;6.466;2022-12-16T13:11:39;100419.13;;;-2.13;100.00
63115;BME280;49208;50.874;6.466;2022-12-16T13:20:43;100427.78;;;-2.14;100.00
63115;BME280;49208;50.874;6.466;2022-12-16T13:23:34;100427.84;;;-2.11;100.00
63115;BME280;49208;50.874;6.466;2022-12-16T13:26:23;100433.03;;;-2.12;100.00
63115;BME280;49208;50.874;6.466;2022-12-16T13:29:23;100436.50;;;-2.13;100.00
63115;BME280;49208;50.874;6.466;2022-12-16T13:35:15;100435.63;;;-2.15;100.00
63115;BME280;49208;50.874;6.466;2022-12-16T13:38:04;100439.94;;;-2.16;100.00
63115;BME280;49208;50.874;6.466;2022-12-16T13:46:54;100455.53;;;-2.19;100.00
63115;BME280;49208;50.874;6.466;2022-12-16T13:49:45;100454.66;;;-2.19;100.00
63115;BME280;49208;50.874;6.466;2022-12-16T13:55:27;100465.03;;;-2.22;100.00
63115;BME280;49208;50.874;6.466;2022-12-16T13:58:25;100465.03;;;-2.22;100.00
63115;BME280;49208;50.874;6.466;2022-12-16T14:01:15;100459.81;;;-2.24;100.00
63115;BME280;49208;50.874;6.466;2022-12-16T14:04:02;100464.16;;;-2.23;100.00
63115;BME280;49208;50.874;6.466;2022-12-16T14:06:46;100458.06;;;-2.24;100.00
63115;BME280;49208;50.874;6.466;2022-12-16T14:09:34;100470.25;;;-2.24;100.00
63115;BME280;49208;50.874;6.466;2022-12-16T14:12:38;100467.59;;;-2.26;100.00
63115;BME280;49208;50.874;6.466;2022-12-16T14:15:51;100469.34;;;-2.25;100.00
63115;BME280;49208;50.874;6.466;2022-12-16T14:18:40;100473.69;;;-2.25;100.00
63115;BME280;49208;50.874;6.466;2022-12-16T14:21:33;100475.47;;;-2.24;100.00
63115;BME280;49208;50.874;6.466;2022-12-16T14:24:28;100480.63;;;-2.26;100.00
63115;BME280;49208;50.874;6.466;2022-12-16T14:27:18;100484.97;;;-2.25;100.00
63115;BME280;49208;50.874;6.466;2022-12-16T14:30:15;100495.41;;;-2.25;100.00
63115;BME280;49208;50.874;6.466;2022-12-16T14:33:19;100492.75;;;-2.28;100.00
63115;BME280;49208;50.874;6.466;2022-12-16T14:36:18;100488.41;;;-2.27;100.00
63115;BME280;49208;50.874;6.466;2022-12-16T14:39:02;100498.00;;;-2.25;100.00
63115;BME280;49208;50.874;6.466;2022-12-16T14:41:49;100496.25;;;-2.27;100.00
63115;BME280;49208;50.874;6.466;2022-12-16T14:44:33;100504.94;;;-2.28;100.00
63115;BME280;49208;50.874;6.466;2022-12-16T14:47:19;100517.06;;;-2.29;100.00
63115;BME280;49208;50.874;6.466;2022-12-16T14:50:34;100517.91;;;-2.31;100.00
63115;BME280;49208;50.874;6.466;2022-12-16T14:53:23;100523.06;;;-2.33;100.00
63115;BME280;49208;50.874;6.466;2022-12-16T14:59:26;100527.38;;;-2.35;100.00
63115;BME280;49208;50.874;6.466;2022-12-16T15:02:27;100537.81;;;-2.35;100.00
63115;BME280;49208;50.874;6.466;2022-12-16T15:05:14;100547.38;;;-2.35;100.00
63115;BME280;49208;50.874;6.466;2022-12-16T15:07:59;100555.19;;;-2.35;100.00
63115;BME280;49208;50.874;6.466;2022-12-16T15:10:44;100544.84;;;-2.32;100.00
63115;BME280;49208;50.874;6.466;2022-12-16T15:13:28;100555.25;;;-2.32;100.00
63115;BME280;49208;50.874;6.466;2022-12-16T15:16:19;100558.72;;;-2.32;100.00
63115;BME280;49208;50.874;6.466;2022-12-16T15:19:11;100558.69;;;-2.33;100.00
63115;BME280;49208;50.874;6.466;2022-12-16T15:21:59;100555.25;;;-2.32;100.00
63115;BME280;49208;50.874;6.466;2022-12-16T15:24:43;100568.28;;;-2.32;100.00
63115;BME280;49208;50.874;6.466;2022-12-16T15:27:34;100570.03;;;-2.31;100.00
63115;BME280;49208;50.874;6.466;2022-12-16T15:33:28;100576.94;;;-2.33;100.00
63115;BME280;49208;50.874;6.466;2022-12-16T15:36:30;100590.84;;;-2.33;100.00
63115;BME280;49208;50.874;6.466;2022-12-16T15:39:24;100592.59;;;-2.33;100.00
63115;BME280;49208;50.874;6.466;2022-12-16T15:42:21;100596.13;;;-2.30;100.00
63115;BME280;49208;50.874;6.466;2022-12-16T15:45:27;100608.25;;;-2.32;100.00
63115;BME280;49208;50.874;6.466;2022-12-16T15:48:27;100602.19;;;-2.31;100.00
63115;BME280;49208;50.874;6.466;2022-12-16T15:54:24;100617.13;;;-2.24;100.00
63115;BME280;49208;50.874;6.466;2022-12-16T16:03:03;100629.28;;;-2.24;100.00
63115;BME280;49208;50.874;6.466;2022-12-16T16:05:47;100631.88;;;-2.22;100.00
63115;BME280;49208;50.874;6.466;2022-12-16T16:08:30;100638.00;;;-2.20;100.00
63115;BME280;49208;50.874;6.466;2022-12-16T16:11:14;100642.44;;;-2.16;100.00
63115;BME280;49208;50.874;6.466;2022-12-16T16:13:58;100644.09;;;-2.21;100.00
63115;BME280;49208;50.874;6.466;2022-12-16T16:16:42;100650.13;;;-2.24;100.00
63115;BME280;49208;50.874;6.466;2022-12-16T16:19:26;100652.66;;;-2.27;100.00
63115;BME280;49208;50.874;6.466;2022-12-16T16:22:12;100658.78;;;-2.25;100.00
63115;BME280;49208;50.874;6.466;2022-12-16T16:24:56;100664.91;;;-2.23;100.00
63115;BME280;49208;50.874;6.466;2022-12-16T16:27:41;100664.88;;;-2.25;100.00
63115;BME280;49208;50.874;6.466;2022-12-16T16:30:25;100676.16;;;-2.26;100.00
63115;BME280;49208;50.874;6.466;2022-12-16T16:33:10;100676.09;;;-2.29;100.00
63115;BME280;49208;50.874;6.466;2022-12-16T16:35:54;100676.03;;;-2.32;100.00
63115;BME280;49208;50.874;6.466;2022-12-16T16:38:38;100676.09;;;-2.29;100.00
63115;BME280;49208;50.874;6.466;2022-12-16T16:41:22;100680.50;;;-2.26;100.00
63115;BME280;49208;50.874;6.466;2022-12-16T16:44:06;100683.09;;;-2.28;100.00
63115;BME280;49208;50.874;6.466;2022-12-16T16:46:50;100678.69;;;-2.29;100.00
63115;BME280;49208;50.874;6.466;2022-12-16T16:49:39;100693.50;;;-2.28;100.00
63115;BME280;49208;50.874;6.466;2022-12-16T16:52:25;100685.63;;;-2.31;100.00
63115;BME280;49208;50.874;6.466;2022-12-16T16:55:18;100697.69;;;-2.36;100.00
63115;BME280;49208;50.874;6.466;2022-12-16T16:58:20;100702.03;;;-2.36;100.00
63115;BME280;49208;50.874;6.466;2022-12-16T17:01:11;100702.03;;;-2.36;100.00
63115;BME280;49208;50.874;6.466;2022-12-16T17:03:56;100712.38;;;-2.39;100.00
63115;BME280;49208;50.874;6.466;2022-12-16T17:06:40;100710.53;;;-2.44;100.00
63115;BME280;49208;50.874;6.466;2022-12-16T17:09:24;100701.81;;;-2.46;100.00
63115;BME280;49208;50.874;6.466;2022-12-16T17:12:25;100711.38;;;-2.46;100.00
63115;BME280;49208;50.874;6.466;2022-12-16T17:15:22;100718.22;;;-2.50;100.00
63115;BME280;49208;50.874;6.466;2022-12-16T17:18:07;100722.56;;;-2.50;100.00
63115;BME280;49208;50.874;6.466;2022-12-16T17:20:52;100723.41;;;-2.53;100.00
63115;BME280;49208;50.874;6.466;2022-12-16T17:23:36;100727.69;;;-2.55;100.00
63115;BME280;49208;50.874;6.466;2022-12-16T17:26:20;100727.66;;;-2.56;100.00
63115;BME280;49208;50.874;6.466;2022-12-16T17:29:04;100726.75;;;-2.58;100.00
63115;BME280;49208;50.874;6.466;2022-12-16T17:31:49;100725.88;;;-2.59;100.00
63115;BME280;49208;50.874;6.466;2022-12-16T17:34:32;100738.88;;;-2.59;100.00
63115;BME280;49208;50.874;6.466;2022-12-16T17:37:16;100735.38;;;-2.59;100.00
63115;BME280;49208;50.874;6.466;2022-12-16T17:40:00;100741.50;;;-2.59;100.00
63115;BME280;49208;50.874;6.466;2022-12-16T17:42:44;100744.88;;;-2.61;100.00
63115;BME280;49208;50.874;6.466;2022-12-16T17:45:28;100746.63;;;-2.62;100.00
63115;BME280;49208;50.874;6.466;2022-12-16T17:48:12;100750.09;;;-2.63;100.00
63115;BME280;49208;50.874;6.466;2022-12-16T17:50:56;100760.50;;;-2.63;100.00
63115;BME280;49208;50.874;6.466;2022-12-16T17:53:40;100764.00;;;-2.62;100.00
63115;BME280;49208;50.874;6.466;2022-12-16T17:56:24;100763.13;;;-2.63;100.00
63115;BME280;49208;50.874;6.466;2022-12-16T17:59:08;100770.06;;;-2.63;100.00
63115;BME280;49208;50.874;6.466;2022-12-16T18:01:53;100776.16;;;-2.63;100.00
63115;BME280;49208;50.874;6.466;2022-12-16T18:04:37;100779.66;;;-2.61;100.00
63115;BME280;49208;50.874;6.466;2022-12-16T18:07:21;100778.75;;;-2.61;100.00
63115;BME280;49208;50.874;6.466;2022-12-16T18:10:05;100781.38;;;-2.61;100.00
63115;BME280;49208;50.874;6.466;2022-12-16T18:12:50;100783.97;;;-2.63;100.00
63115;BME280;49208;50.874;6.466;2022-12-16T18:15:34;100787.44;;;-2.62;100.00
63115;BME280;49208;50.874;6.466;2022-12-16T18:18:18;100788.31;;;-2.63;100.00
63115;BME280;49208;50.874;6.466;2022-12-16T18:21:09;100795.22;;;-2.64;100.00
63115;BME280;49208;50.874;6.466;2022-12-16T18:23:54;100794.28;;;-2.66;100.00
63115;BME280;49208;50.874;6.466;2022-12-16T18:26:37;100794.28;;;-2.68;100.00
63115;BME280;49208;50.874;6.466;2022-12-16T18:29:21;100797.72;;;-2.69;100.00
63115;BME280;49208;50.874;6.466;2022-12-16T18:32:05;100800.31;;;-2.69;100.00
63115;BME280;49208;50.874;6.466;2022-12-16T18:34:49;100800.31;;;-2.69;100.00
63115;BME280;49208;50.874;6.466;2022-12-16T18:37:33;100802.06;;;-2.69;100.00
63115;BME280;49208;50.874;6.466;2022-12-16T18:40:17;100800.28;;;-2.72;100.00
63115;BME280;49208;50.874;6.466;2022-12-16T18:43:01;100804.66;;;-2.69;100.00
63115;BME280;49208;50.874;6.466;2022-12-16T18:45:51;100797.66;;;-2.72;100.00
63115;BME280;49208;50.874;6.466;2022-12-16T18:48:35;100802.88;;;-2.72;100.00
63115;BME280;49208;50.874;6.466;2022-12-16T18:51:19;100809.84;;;-2.71;100.00
63115;BME280;49208;50.874;6.466;2022-12-16T18:54:03;100805.47;;;-2.72;100.00
63115;BME280;49208;50.874;6.466;2022-12-16T18:56:47;100808.97;;;-2.71;100.00
63115;BME280;49208;50.874;6.466;2022-12-16T18:59:31;100807.19;;;-2.72;100.00
63115;BME280;49208;50.874;6.466;2022-12-16T19:02:15;100810.69;;;-2.72;100.00
63115;BME280;49208;50.874;6.466;2022-12-16T19:04:58;100812.38;;;-2.72;100.00
63115;BME280;49208;50.874;6.466;2022-12-16T19:07:42;100815.91;;;-2.72;100.00
63115;BME280;49208;50.874;6.466;2022-12-16T19:10:26;100824.59;;;-2.71;100.00
63115;BME280;49208;50.874;6.466;2022-12-16T19:13:13;100821.13;;;-2.70;100.00
63115;BME280;49208;50.874;6.466;2022-12-16T19:15:58;100827.25;;;-2.70;100.00
63115;BME280;49208;50.874;6.466;2022-12-16T19:18:42;100835.06;;;-2.68;100.00
63115;BME280;49208;50.874;6.466;2022-12-16T19:21:26;100827.31;;;-2.67;100.00
63115;BME280;49208;50.874;6.466;2022-12-16T19:24:10;100842.97;;;-2.65;100.00
63115;BME280;49208;50.874;6.466;2022-12-16T19:26:54;100837.72;;;-2.67;100.00
63115;BME280;49208;50.874;6.466;2022-12-16T19:29:38;100846.41;;;-2.66;100.00
63115;BME280;49208;50.874;6.466;2022-12-16T19:32:22;100852.53;;;-2.66;100.00
63115;BME280;49208;50.874;6.466;2022-12-16T19:35:06;100858.63;;;-2.65;100.00
63115;BME280;49208;50.874;6.466;2022-12-16T19:37:50;100855.16;;;-2.64;100.00
63115;BME280;49208;50.874;6.466;2022-12-16T19:40:34;100862.09;;;-2.65;100.00
63115;BME280;49208;50.874;6.466;2022-12-16T19:43:18;100856.88;;;-2.65;100.00
63115;BME280;49208;50.874;6.466;2022-12-16T19:46:02;100856.88;;;-2.65;100.00
63115;BME280;49208;50.874;6.466;2022-12-16T19:48:46;100867.31;;;-2.65;100.00
63115;BME280;49208;50.874;6.466;2022-12-16T19:51:30;100867.31;;;-2.65;100.00
63115;BME280;49208;50.874;6.466;2022-12-16T19:54:14;100875.13;;;-2.65;100.00
63115;BME280;49208;50.874;6.466;2022-12-16T19:56:58;100872.50;;;-2.65;100.00
63115;BME280;49208;50.874;6.466;2022-12-16T19:59:42;100881.22;;;-2.64;100.00
63115;BME280;49208;50.874;6.466;2022-12-16T20:02:26;100882.94;;;-2.65;100.00
63115;BME280;49208;50.874;6.466;2022-12-16T20:05:10;100881.22;;;-2.64;100.00
63115;BME280;49208;50.874;6.466;2022-12-16T20:07:54;100886.47;;;-2.62;100.00
63115;BME280;49208;50.874;6.466;2022-12-16T20:10:38;100889.03;;;-2.64;100.00
63115;BME280;49208;50.874;6.466;2022-12-16T20:13:22;100881.25;;;-2.62;100.00
63115;BME280;49208;50.874;6.466;2022-12-16T20:16:08;100884.72;;;-2.62;100.00
63115;BME280;49208;50.874;6.466;2022-12-16T20:18:53;100886.47;;;-2.62;100.00
63115;BME280;49208;50.874;6.466;2022-12-16T20:21:37;100882.13;;;-2.62;100.00
63115;BME280;49208;50.874;6.466;2022-12-16T20:24:21;100882.13;;;-2.62;100.00
63115;BME280;49208;50.874;6.466;2022-12-16T20:27:05;100895.13;;;-2.63;100.00
63115;BME280;49208;50.874;6.466;2022-12-16T20:29:49;100893.41;;;-2.63;100.00
63115;BME280;49208;50.874;6.466;2022-12-16T20:32:33;100890.75;;;-2.65;100.00
63115;BME280;49208;50.874;6.466;2022-12-16T20:35:17;100889.03;;;-2.64;100.00
63115;BME280;49208;50.874;6.466;2022-12-16T20:38:01;100897.69;;;-2.65;100.00
63115;BME280;49208;50.874;6.466;2022-12-16T20:40:54;100903.78;;;-2.65;100.00
63115;BME280;49208;50.874;6.466;2022-12-16T20:43:38;100909.00;;;-2.65;100.00
63115;BME280;49208;50.874;6.466;2022-12-16T20:46:22;100914.19;;;-2.65;100.00
63115;BME280;49208;50.874;6.466;2022-12-16T20:49:06;100913.34;;;-2.65;100.00
63115;BME280;49208;50.874;6.466;2022-12-16T20:51:49;100915.06;;;-2.64;100.00
63115;BME280;49208;50.874;6.466;2022-12-16T20:54:33;100915.06;;;-2.64;100.00
63115;BME280;49208;50.874;6.466;2022-12-16T20:57:17;100921.16;;;-2.65;100.00
63115;BME280;49208;50.874;6.466;2022-12-16T21:00:01;100925.50;;;-2.66;100.00
63115;BME280;49208;50.874;6.466;2022-12-16T21:02:46;100930.69;;;-2.66;100.00
63115;BME280;49208;50.874;6.466;2022-12-16T21:05:30;100935.91;;;-2.66;100.00
63115;BME280;49208;50.874;6.466;2022-12-16T21:08:14;100941.94;;;-2.67;100.00
63115;BME280;49208;50.874;6.466;2022-12-16T21:10:58;100939.34;;;-2.67;100.00
63115;BME280;49208;50.874;6.466;2022-12-16T21:13:42;100942.00;;;-2.65;100.00
63115;BME280;49208;50.874;6.466;2022-12-16T21:16:25;100945.44;;;-2.66;100.00
63115;BME280;49208;50.874;6.466;2022-12-16T21:19:09;100949.81;;;-2.65;100.00
63115;BME280;49208;50.874;6.466;2022-12-16T21:21:53;100949.81;;;-2.65;100.00
63115;BME280;49208;50.874;6.466;2022-12-16T21:24:37;100958.50;;;-2.65;100.00
63115;BME280;49208;50.874;6.466;2022-12-16T21:27:21;100962.88;;;-2.63;100.00
63115;BME280;49208;50.874;6.466;2022-12-16T21:30:06;100971.69;;;-2.58;100.00
63115;BME280;49208;50.874;6.466;2022-12-16T21:32:50;100969.03;;;-2.60;100.00
63115;BME280;49208;50.874;6.466;2022-12-16T21:35:34;100969.00;;;-2.61;100.00
63115;BME280;49208;50.874;6.466;2022-12-16T21:38:17;100971.59;;;-2.61;100.00
63115;BME280;49208;50.874;6.466;2022-12-16T21:41:01;100988.09;;;-2.62;100.00
63115;BME280;49208;50.874;6.466;2022-12-16T21:43:45;100994.16;;;-2.63;100.00
63115;BME280;49208;50.874;6.466;2022-12-16T21:46:29;100988.94;;;-2.63;100.00
63115;BME280;49208;50.874;6.466;2022-12-16T21:49:13;100995.84;;;-2.64;100.00
63115;BME280;49208;50.874;6.466;2022-12-16T21:51:57;101001.97;;;-2.63;100.00
63115;BME280;49208;50.874;6.466;2022-12-16T21:54:41;101001.97;;;-2.63;100.00
63115;BME280;49208;50.874;6.466;2022-12-16T21:57:25;101009.81;;;-2.62;100.00
63115;BME280;49208;50.874;6.466;2022-12-16T22:00:09;101002.88;;;-2.61;100.00
63115;BME280;49208;50.874;6.466;2022-12-16T22:02:54;101006.41;;;-2.59;100.00
63115;BME280;49208;50.874;6.466;2022-12-16T22:05:40;101005.56;;;-2.58;100.00
63115;BME280;49208;50.874;6.466;2022-12-16T22:08:23;101009.91;;;-2.59;100.00
63115;BME280;49208;50.874;6.466;2022-12-16T22:11:11;101016.00;;;-2.58;100.00
63115;BME280;49208;50.874;6.466;2022-12-16T22:13:56;101019.47;;;-2.58;100.00
63115;BME280;49208;50.874;6.466;2022-12-16T22:16:40;101024.63;;;-2.59;100.00
63115;BME280;49208;50.874;6.466;2022-12-16T22:19:24;101027.25;;;-2.59;100.00
63115;BME280;49208;50.874;6.466;2022-12-16T22:22:08;101015.13;;;-2.59;100.00
63115;BME280;49208;50.874;6.466;2022-12-16T22:24:52;101015.03;;;-2.62;100.00
63115;BME280;49208;50.874;6.466;2022-12-16T22:27:36;101026.31;;;-2.63;100.00
63115;BME280;49208;50.874;6.466;2022-12-16T22:30:20;101037.66;;;-2.61;100.00
63115;BME280;49208;50.874;6.466;2022-12-16T22:33:09;101035.00;;;-2.62;100.00
63115;BME280;49208;50.874;6.466;2022-12-16T22:36:02;101038.47;;;-2.63;100.00
63115;BME280;49208;50.874;6.466;2022-12-16T22:39:03;101035.84;;;-2.63;100.00
63115;BME280;49208;50.874;6.466;2022-12-16T22:41:46;101040.16;;;-2.64;100.00
63115;BME280;49208;50.874;6.466;2022-12-16T22:44:30;101034.94;;;-2.64;100.00
63115;BME280;49208;50.874;6.466;2022-12-16T22:47:14;101043.66;;;-2.63;100.00
63115;BME280;49208;50.874;6.466;2022-12-16T22:49:58;101049.75;;;-2.63;100.00
63115;BME280;49208;50.874;6.466;2022-12-16T22:52:42;101044.53;;;-2.63;100.00